createdAt,value
2022-09-23T00:02:09.000Z,990.11
2022-09-23T00:07:06.000Z,990.05
2022-09-23T00:11:58.000Z,990.08
2022-09-23T00:16:52.000Z,990.06
2022-09-23T00:21:46.000Z,990.06
2022-09-23T00:26:41.000Z,989.96
2022-09-23T00:31:34.000Z,990.01
2022-09-23T00:36:29.000Z,989.98
2022-09-23T00:41:24.000Z,989.97
2022-09-23T00:46:19.000Z,989.85
2022-09-23T00:51:13.000Z,989.85
2022-09-23T00:56:08.000Z,989.83
2022-09-23T01:01:03.000Z,989.76
2022-09-23T01:05:57.000Z,989.71
2022-09-23T01:10:50.000Z,989.77
2022-09-23T01:15:45.000Z,989.67
2022-09-23T01:20:39.000Z,989.65
2022-09-23T01:25:34.000Z,989.56
2022-09-23T01:30:28.000Z,989.55
2022-09-23T01:35:23.000Z,989.46
2022-09-23T01:40:18.000Z,989.46
2022-09-23T01:45:13.000Z,989.35
2022-09-23T01:50:07.000Z,989.37
2022-09-23T01:55:02.000Z,989.23
2022-09-23T01:59:56.000Z,989.22
2022-09-23T02:04:50.000Z,989.28
2022-09-23T02:09:45.000Z,989.22
2022-09-23T02:14:39.000Z,989.21
2022-09-23T02:19:34.000Z,989.30
2022-09-23T02:24:28.000Z,989.20
2022-09-23T02:29:23.000Z,989.21
2022-09-23T02:34:18.000Z,989.29
2022-09-23T02:39:12.000Z,989.30
2022-09-23T02:44:07.000Z,989.39
2022-09-23T02:49:01.000Z,989.39
2022-09-23T02:53:56.000Z,989.35
2022-09-23T02:58:50.000Z,989.34
2022-09-23T03:03:45.000Z,989.19
2022-09-23T03:08:38.000Z,989.10
2022-09-23T03:13:33.000Z,989.11
2022-09-23T03:18:27.000Z,989.10
2022-09-23T03:23:22.000Z,989.08
2022-09-23T03:28:16.000Z,988.96
2022-09-23T03:33:11.000Z,988.98
2022-09-23T03:38:05.000Z,988.94
2022-09-23T03:43:00.000Z,988.92
2022-09-23T03:47:54.000Z,988.79
2022-09-23T03:52:48.000Z,988.81
2022-09-23T03:57:43.000Z,988.78
2022-09-23T04:02:38.000Z,988.71
2022-09-23T04:07:33.000Z,988.68
2022-09-23T04:12:30.000Z,988.63
2022-09-23T04:17:21.000Z,988.69
2022-09-23T04:22:16.000Z,988.67
2022-09-23T04:27:10.000Z,988.76
2022-09-23T04:32:05.000Z,988.69
2022-09-23T04:36:59.000Z,988.73
2022-09-23T04:41:53.000Z,988.72
2022-09-23T04:46:48.000Z,988.74
2022-09-23T04:51:43.000Z,988.67
2022-09-23T04:56:37.000Z,988.63
2022-09-23T05:01:32.000Z,988.69
2022-09-23T05:06:26.000Z,988.62
2022-09-23T05:11:20.000Z,988.64
2022-09-23T05:16:15.000Z,988.63
2022-09-23T05:21:09.000Z,988.61
2022-09-23T05:26:03.000Z,988.66
2022-09-23T05:30:59.000Z,988.67
2022-09-23T05:35:50.000Z,988.62
2022-09-23T05:40:44.000Z,988.56
2022-09-23T05:45:39.000Z,988.59
2022-09-23T05:50:33.000Z,988.67
2022-09-23T05:55:27.000Z,988.75
2022-09-23T06:00:22.000Z,988.68
2022-09-23T06:05:17.000Z,988.71
2022-09-23T06:10:10.000Z,988.61
2022-09-23T06:15:05.000Z,988.67
2022-09-23T06:19:58.000Z,988.61
2022-09-23T06:24:53.000Z,988.45
2022-09-23T06:29:48.000Z,988.46
2022-09-23T06:34:43.000Z,988.44
2022-09-23T06:39:38.000Z,988.49
2022-09-23T06:44:32.000Z,988.55
2022-09-23T06:49:27.000Z,988.49
2022-09-23T06:54:21.000Z,988.58
2022-09-23T06:59:16.000Z,988.57
2022-09-23T07:04:09.000Z,988.49
2022-09-23T07:09:03.000Z,988.51
2022-09-23T07:13:56.000Z,988.60
2022-09-23T07:18:51.000Z,988.67
2022-09-23T07:23:45.000Z,988.65
2022-09-23T07:28:40.000Z,988.63
2022-09-23T07:33:35.000Z,988.73
2022-09-23T07:38:30.000Z,988.74
2022-09-23T07:43:25.000Z,988.76
2022-09-23T07:48:17.000Z,988.71
2022-09-23T07:53:12.000Z,988.77
2022-09-23T07:58:07.000Z,988.69
2022-09-23T08:03:01.000Z,988.62
2022-09-23T08:07:56.000Z,988.74
2022-09-23T08:12:50.000Z,988.71
2022-09-23T08:17:44.000Z,988.63
2022-09-23T08:22:39.000Z,988.67
2022-09-23T08:27:33.000Z,988.71
2022-09-23T08:32:27.000Z,988.74
2022-09-23T08:37:22.000Z,988.60
2022-09-23T08:42:17.000Z,988.53
2022-09-23T08:47:12.000Z,988.60
2022-09-23T08:52:07.000Z,988.65
2022-09-23T08:57:02.000Z,988.64
2022-09-23T09:01:57.000Z,988.70
2022-09-23T09:06:52.000Z,988.64
2022-09-23T09:11:48.000Z,988.63
2022-09-23T09:16:44.000Z,988.63
2022-09-23T09:21:40.000Z,988.60
2022-09-23T09:26:34.000Z,988.54
2022-09-23T09:31:29.000Z,988.55
2022-09-23T09:36:24.000Z,988.54
2022-09-23T09:41:20.000Z,988.50
2022-09-23T09:46:13.000Z,988.41
2022-09-23T09:51:07.000Z,988.40
2022-09-23T09:56:02.000Z,988.40
2022-09-23T10:00:57.000Z,988.23
2022-09-23T10:05:52.000Z,988.22
2022-09-23T10:10:47.000Z,988.24
2022-09-23T10:15:42.000Z,988.20
2022-09-23T10:20:36.000Z,988.08
2022-09-23T10:25:31.000Z,988.02
2022-09-23T10:30:25.000Z,988.05
2022-09-23T10:35:20.000Z,988.02
2022-09-23T10:40:15.000Z,987.97
2022-09-23T10:45:10.000Z,987.95
2022-09-23T10:50:05.000Z,987.96
2022-09-23T10:55:00.000Z,987.95
2022-09-23T10:59:55.000Z,987.86
2022-09-23T11:04:49.000Z,987.91
2022-09-23T11:09:44.000Z,987.75
2022-09-23T11:14:39.000Z,987.80
2022-09-23T11:19:33.000Z,987.79
2022-09-23T11:24:28.000Z,987.73
2022-09-23T11:29:23.000Z,987.73
2022-09-23T11:34:17.000Z,987.77
2022-09-23T11:39:12.000Z,987.69
2022-09-23T11:44:06.000Z,987.63
2022-09-23T11:49:00.000Z,987.51
2022-09-23T11:53:54.000Z,987.48
2022-09-23T11:58:48.000Z,987.45
2022-09-23T12:03:42.000Z,987.46
2022-09-23T12:08:37.000Z,987.48
2022-09-23T12:13:32.000Z,987.39
2022-09-23T12:18:26.000Z,987.44
2022-09-23T12:23:20.000Z,987.28
2022-09-23T12:28:17.000Z,987.32
2022-09-23T12:33:13.000Z,987.32
2022-09-23T12:38:08.000Z,987.24
2022-09-23T12:43:03.000Z,987.18
2022-09-23T12:47:57.000Z,987.13
2022-09-23T12:52:52.000Z,987.08
2022-09-23T12:57:46.000Z,987.00
2022-09-23T13:02:40.000Z,987.07
2022-09-23T13:07:35.000Z,986.88
2022-09-23T13:12:30.000Z,986.82
2022-09-23T13:17:26.000Z,986.72
2022-09-23T13:22:21.000Z,986.78
2022-09-23T13:27:15.000Z,986.71
2022-09-23T13:32:10.000Z,986.69
2022-09-23T13:37:04.000Z,986.71
2022-09-23T13:41:59.000Z,986.56
2022-09-23T13:46:53.000Z,986.49
2022-09-23T13:51:49.000Z,986.48
2022-09-23T13:56:43.000Z,986.59
2022-09-23T14:01:38.000Z,986.54
2022-09-23T14:06:31.000Z,986.45
2022-09-23T14:11:26.000Z,986.53
2022-09-23T14:16:21.000Z,986.43
2022-09-23T14:21:16.000Z,986.41
2022-09-23T14:26:11.000Z,986.31
2022-09-23T14:31:05.000Z,986.14
2022-09-23T14:35:59.000Z,986.21
2022-09-23T14:40:53.000Z,986.12
2022-09-23T14:45:48.000Z,986.17
2022-09-23T14:50:43.000Z,986.05
2022-09-23T14:55:37.000Z,985.91
2022-09-23T15:00:31.000Z,985.94
2022-09-23T15:05:26.000Z,985.92
2022-09-23T15:10:20.000Z,985.79
2022-09-23T15:15:15.000Z,985.69
2022-09-23T15:20:09.000Z,985.61
2022-09-23T15:25:03.000Z,985.54
2022-09-23T15:29:57.000Z,985.58
2022-09-23T15:34:52.000Z,985.56
2022-09-23T15:39:47.000Z,985.66
2022-09-23T15:44:41.000Z,985.67
2022-09-23T15:49:36.000Z,985.74
2022-09-23T15:54:31.000Z,985.75
2022-09-23T15:59:26.000Z,985.68
2022-09-23T16:04:19.000Z,985.70
2022-09-23T16:09:14.000Z,985.75
2022-09-23T16:14:08.000Z,985.70
2022-09-23T16:19:03.000Z,985.72
2022-09-23T16:23:57.000Z,985.65
2022-09-23T16:28:49.000Z,985.62
2022-09-23T16:33:44.000Z,985.74
2022-09-23T16:38:38.000Z,985.58
2022-09-23T16:43:33.000Z,985.60
2022-09-23T16:48:28.000Z,985.52
2022-09-23T16:53:22.000Z,985.60
2022-09-23T16:58:15.000Z,985.67
2022-09-23T17:03:09.000Z,985.70
2022-09-23T17:08:04.000Z,985.77
2022-09-23T17:12:58.000Z,985.75
2022-09-23T17:17:53.000Z,985.70
2022-09-23T17:22:47.000Z,985.58
2022-09-23T17:27:42.000Z,985.62
2022-09-23T17:32:36.000Z,985.61
2022-09-23T17:37:30.000Z,985.45
2022-09-23T17:42:25.000Z,985.42
2022-09-23T17:47:19.000Z,985.48
2022-09-23T17:52:14.000Z,985.46
2022-09-23T17:57:09.000Z,985.54
2022-09-23T18:02:03.000Z,985.53
2022-09-23T18:06:58.000Z,985.56
2022-09-23T18:11:52.000Z,985.64
2022-09-23T18:16:46.000Z,985.60
2022-09-23T18:21:40.000Z,985.52
2022-09-23T18:26:35.000Z,985.56
2022-09-23T18:31:29.000Z,985.58
2022-09-23T18:36:23.000Z,985.64
2022-09-23T18:41:18.000Z,985.58
2022-09-23T18:46:13.000Z,985.62
2022-09-23T18:51:07.000Z,985.62
2022-09-23T18:56:02.000Z,985.64
2022-09-23T19:00:56.000Z,985.60
2022-09-23T19:05:50.000Z,985.61
2022-09-23T19:10:45.000Z,985.60
2022-09-23T19:15:40.000Z,985.59
2022-09-23T19:20:34.000Z,985.58
2022-09-23T19:25:29.000Z,985.59
2022-09-23T19:30:23.000Z,985.69
2022-09-23T19:35:18.000Z,985.56
2022-09-23T19:40:12.000Z,985.56
2022-09-23T19:45:07.000Z,985.50
2022-09-23T19:50:01.000Z,985.55
2022-09-23T19:54:56.000Z,985.43
2022-09-23T19:59:50.000Z,985.37
2022-09-23T20:04:45.000Z,985.26
2022-09-23T20:09:40.000Z,985.43
2022-09-23T20:14:34.000Z,985.28
2022-09-23T20:19:29.000Z,985.31
2022-09-23T20:24:24.000Z,985.21
2022-09-23T20:29:18.000Z,985.31
2022-09-23T20:34:12.000Z,985.24
2022-09-23T20:39:06.000Z,985.27
2022-09-23T20:43:59.000Z,985.27
2022-09-23T20:48:53.000Z,985.22
2022-09-23T20:53:48.000Z,985.21
2022-09-23T20:58:42.000Z,985.17
2022-09-23T21:03:36.000Z,985.16
2022-09-23T21:08:31.000Z,985.13
2022-09-23T21:13:25.000Z,985.22
2022-09-23T21:18:19.000Z,985.24
2022-09-23T21:28:09.000Z,985.07
2022-09-23T21:33:02.000Z,985.04
2022-09-23T21:37:57.000Z,985.15
2022-09-23T21:42:52.000Z,985.16
2022-09-23T21:47:46.000Z,985.13
2022-09-23T21:52:41.000Z,985.12
2022-09-23T21:57:38.000Z,985.07
2022-09-23T22:02:29.000Z,985.24
2022-09-23T22:07:24.000Z,985.12
2022-09-23T22:12:19.000Z,985.15
2022-09-23T22:17:13.000Z,985.23
2022-09-23T22:22:08.000Z,985.22
2022-09-23T22:27:02.000Z,985.22
2022-09-23T22:31:56.000Z,985.38
2022-09-23T22:36:51.000Z,985.33
2022-09-23T22:41:45.000Z,985.19
2022-09-23T22:46:40.000Z,985.18
2022-09-23T22:51:35.000Z,985.14
2022-09-23T22:56:29.000Z,985.13
2022-09-23T23:01:24.000Z,985.18
2022-09-23T23:06:19.000Z,985.10
2022-09-23T23:11:13.000Z,985.12
2022-09-23T23:16:08.000Z,985.08
2022-09-23T23:21:02.000Z,985.06
2022-09-23T23:25:57.000Z,985.00
2022-09-23T23:30:52.000Z,984.98
2022-09-23T23:35:46.000Z,984.94
2022-09-23T23:40:41.000Z,984.90
2022-09-23T23:45:35.000Z,984.86
2022-09-23T23:50:30.000Z,984.90
2022-09-23T23:55:25.000Z,984.92
